Time;durP1;ratioP1;P1;durP2;ratioP2;P2;SDS_P1;SDS_P2;PMS_P1;PMS_P2;Temp;Humidity;BMP_temperature;BMP_pressure;BME280_temperature;BME280_humidity;BME280_pressure;Samples;Min_cycle;Max_cycle;Signal;HPM_P1;HPM_P2
2020/12/08 00:01:33;;;;;;;21.45;13.70;;;3.90;96.40;;;;;;5049747;28;20021;-43
2020/12/08 00:03:58;;;;;;;21.63;14.05;;;3.90;96.50;;;;;;5049678;28;20021;-43
2020/12/08 00:06:24;;;;;;;23.80;16.05;;;4.00;96.60;;;;;;5049829;28;20025;-43
2020/12/08 00:08:49;;;;;;;22.90;14.60;;;4.00;96.50;;;;;;5049608;28;20503;-43
2020/12/08 00:11:16;;;;;;;24.80;16.90;;;4.10;96.50;;;;;;5049191;28;20025;-43
2020/12/08 00:13:43;;;;;;;24.23;15.77;;;4.10;96.50;;;;;;5049750;28;20071;-42
2020/12/08 00:16:09;;;;;;;22.70;15.55;;;4.20;96.40;;;;;;5048016;28;20107;-42
2020/12/08 00:18:35;;;;;;;25.67;17.02;;;4.20;96.40;;;;;;5048925;28;20112;-43
2020/12/08 00:21:00;;;;;;;22.63;15.70;;;4.20;96.40;;;;;;5049483;28;20052;-43
2020/12/08 00:23:26;;;;;;;21.25;14.98;;;4.20;96.30;;;;;;5047555;28;20041;-43
2020/12/08 00:25:51;;;;;;;21.08;14.73;;;4.30;96.30;;;;;;5049235;28;20032;-43
2020/12/08 00:28:16;;;;;;;21.80;14.98;;;4.30;96.30;;;;;;5049036;28;20082;-42
2020/12/08 00:30:42;;;;;;;18.48;13.00;;;4.30;96.20;;;;;;5048683;28;20418;-42
2020/12/08 00:33:08;;;;;;;18.88;13.05;;;4.30;96.20;;;;;;5049000;28;20027;-43
2020/12/08 00:35:33;;;;;;;19.05;12.32;;;4.30;96.20;;;;;;5049541;28;20036;-43
2020/12/08 00:37:59;;;;;;;20.02;12.95;;;4.30;96.20;;;;;;5048921;28;20052;-43
2020/12/08 00:40:24;;;;;;;17.33;11.80;;;4.30;96.20;;;;;;5049139;28;20033;-42
2020/12/08 00:42:49;;;;;;;17.85;11.68;;;4.30;96.20;;;;;;5049287;28;20078;-43
2020/12/08 00:45:15;;;;;;;21.27;13.00;;;4.30;96.20;;;;;;5048207;28;20108;-42
2020/12/08 00:47:40;;;;;;;21.23;14.52;;;4.30;96.20;;;;;;5049154;28;20053;-44
2020/12/08 00:50:06;;;;;;;21.25;14.70;;;4.30;96.20;;;;;;5048913;28;20060;-43
2020/12/08 00:52:32;;;;;;;18.05;11.95;;;4.40;96.10;;;;;;5048649;28;20048;-43
2020/12/08 00:54:58;;;;;;;20.67;13.30;;;4.30;96.10;;;;;;5049395;28;20480;-43
2020/12/08 00:57:23;;;;;;;25.02;15.07;;;4.30;96.10;;;;;;5048163;28;20102;-43
2020/12/08 00:59:49;;;;;;;25.23;16.70;;;4.30;96.10;;;;;;5048525;28;20480;-43
2020/12/08 01:02:17;;;;;;;27.85;18.30;;;4.30;96.10;;;;;;5047724;28;20025;-42
2020/12/08 01:04:43;;;;;;;25.83;18.25;;;4.20;96.00;;;;;;5049154;28;20032;-43
2020/12/08 01:07:08;;;;;;;28.98;18.40;;;4.20;96.00;;;;;;5048154;28;20055;-43
2020/12/08 01:09:35;;;;;;;27.98;18.50;;;4.20;96.00;;;;;;5048981;28;20096;-43
2020/12/08 01:12:00;;;;;;;31.42;20.08;;;4.10;96.00;;;;;;5048763;28;20060;-41
2020/12/08 01:14:26;;;;;;;31.77;19.52;;;4.10;96.00;;;;;;5047837;28;20520;-42
2020/12/08 01:16:51;;;;;;;33.13;19.23;;;4.10;96.10;;;;;;5048343;28;20029;-43
2020/12/08 01:19:17;;;;;;;30.10;18.13;;;4.00;96.10;;;;;;5047705;28;20025;-43
2020/12/08 01:21:43;;;;;;;26.52;16.92;;;4.00;96.10;;;;;;5048806;28;20104;-43
2020/12/08 01:24:08;;;;;;;24.00;15.82;;;4.00;96.10;;;;;;5047976;28;20419;-44
2020/12/08 01:26:34;;;;;;;19.00;13.25;;;3.90;96.10;;;;;;5048353;28;20068;-43
2020/12/08 01:28:59;;;;;;;22.73;14.63;;;3.90;96.10;;;;;;5048469;28;20025;-43
2020/12/08 01:31:32;;;;;;;19.70;13.50;;;3.90;96.10;;;;;;5047854;28;20624;-43
2020/12/08 01:33:58;;;;;;;26.20;15.45;;;3.80;96.20;;;;;;5048203;28;20068;-43
2020/12/08 01:36:24;;;;;;;28.67;17.75;;;3.90;96.30;;;;;;5046865;28;20057;-43
2020/12/08 01:38:49;;;;;;;30.10;19.42;;;3.90;96.20;;;;;;5048248;28;20086;-43
2020/12/08 01:41:15;;;;;;;29.60;17.48;;;3.80;96.20;;;;;;5047637;28;20066;-43
2020/12/08 01:43:48;;;;;;;30.35;19.27;;;3.80;96.20;;;;;;5048196;28;20013;-42
2020/12/08 01:46:19;;;;;;;29.45;19.33;;;3.80;96.20;;;;;;5047438;28;20431;-43
2020/12/08 01:48:47;;;;;;;31.05;20.17;;;3.80;96.50;;;;;;5048151;28;20025;-42
2020/12/08 01:51:13;;;;;;;30.17;20.20;;;3.70;96.20;;;;;;5047114;28;20122;-43
2020/12/08 01:53:39;;;;;;;35.42;21.48;;;3.60;96.40;;;;;;5048106;28;20024;-43
2020/12/08 01:56:04;;;;;;;34.08;20.65;;;3.60;96.20;;;;;;5047781;28;20017;-43
2020/12/08 01:58:30;;;;;;;33.58;19.80;;;3.50;96.20;;;;;;5047596;28;20021;-44
2020/12/08 02:00:55;;;;;;;29.35;17.95;;;3.50;96.20;;;;;;5048154;28;20026;-43
2020/12/08 02:03:21;;;;;;;28.90;18.60;;;3.40;96.30;;;;;;5046881;28;20025;-43
2020/12/08 02:05:47;;;;;;;31.75;19.77;;;3.40;96.30;;;;;;5047520;28;20025;-43
2020/12/08 02:08:12;;;;;;;33.80;21.30;;;3.30;96.30;;;;;;5046721;28;20036;-43
2020/12/08 02:10:38;;;;;;;33.58;21.23;;;3.30;96.40;;;;;;5047158;28;20559;-42
2020/12/08 02:13:05;;;;;;;30.25;19.48;;;3.30;96.50;;;;;;5048079;28;20543;-44
2020/12/08 02:15:31;;;;;;;29.13;18.05;;;3.20;96.50;;;;;;5047330;28;20369;-43
2020/12/08 02:17:57;;;;;;;30.98;19.55;;;3.20;96.50;;;;;;5048152;28;20029;-43
2020/12/08 02:20:25;;;;;;;31.00;19.33;;;3.20;96.50;;;;;;5046867;28;20029;-43
2020/12/08 02:22:54;;;;;;;30.48;19.38;;;3.20;96.60;;;;;;5047330;28;20029;-42
2020/12/08 02:25:19;;;;;;;30.75;19.15;;;3.20;96.60;;;;;;5047304;28;20104;-42
2020/12/08 02:27:45;;;;;;;29.77;19.98;;;3.20;96.60;;;;;;5048270;28;20144;-42
2020/12/08 02:30:11;;;;;;;31.60;19.98;;;3.20;96.60;;;;;;5046831;28;20481;-43
2020/12/08 02:32:36;;;;;;;38.25;21.70;;;3.20;96.60;;;;;;5047866;28;20029;-43
2020/12/08 02:35:02;;;;;;;34.35;22.05;;;3.10;96.60;;;;;;5047530;28;20396;-43
2020/12/08 02:37:28;;;;;;;36.05;22.45;;;3.10;96.60;;;;;;5046744;28;20029;-42
2020/12/08 02:39:53;;;;;;;32.10;20.52;;;3.10;96.60;;;;;;5047754;28;20078;-43
2020/12/08 02:42:19;;;;;;;36.40;21.48;;;3.10;96.60;;;;;;5047300;28;20033;-43
2020/12/08 02:44:44;;;;;;;33.95;19.60;;;3.10;96.60;;;;;;5047345;28;20486;-43
2020/12/08 02:47:10;;;;;;;34.10;19.90;;;3.10;96.70;;;;;;5049325;28;20044;-43
2020/12/08 02:49:35;;;;;;;29.48;19.08;;;3.10;96.70;;;;;;5051408;28;20014;-43
2020/12/08 02:52:01;;;;;;;33.38;20.42;;;3.00;96.70;;;;;;5051218;28;20039;-42
2020/12/08 02:54:26;;;;;;;37.13;21.02;;;3.00;96.70;;;;;;5050605;28;20064;-43
2020/12/08 02:56:52;;;;;;;35.45;20.08;;;3.00;96.70;;;;;;5051051;28;20033;-43
2020/12/08 02:59:17;;;;;;;31.08;18.52;;;3.00;96.70;;;;;;5050515;28;20607;-42
2020/12/08 03:01:43;;;;;;;33.53;20.70;;;3.00;96.70;;;;;;5051338;28;20059;-43
2020/12/08 03:04:08;;;;;;;28.20;17.90;;;3.00;96.70;;;;;;5050363;28;20048;-43
2020/12/08 03:06:34;;;;;;;33.65;20.08;;;3.00;96.80;;;;;;5050781;28;20495;-42
2020/12/08 03:08:59;;;;;;;31.67;18.73;;;2.90;96.80;;;;;;5050842;28;20023;-43
2020/12/08 03:11:32;;;;;;;40.40;20.92;;;3.00;96.80;;;;;;5049967;28;20025;-43
2020/12/08 03:13:57;;;;;;;32.83;19.25;;;3.00;96.90;;;;;;5050764;28;20025;-42
2020/12/08 03:16:23;;;;;;;34.35;19.27;;;3.00;96.90;;;;;;5050382;28;20044;-42
2020/12/08 03:18:48;;;;;;;33.22;19.25;;;2.90;96.80;;;;;;5049973;28;20064;-43
2020/12/08 03:21:14;;;;;;;29.25;18.23;;;2.90;96.90;;;;;;5049574;28;20035;-43
2020/12/08 03:23:40;;;;;;;29.70;17.33;;;2.90;97.10;;;;;;5050406;28;20037;-42
2020/12/08 03:26:05;;;;;;;33.50;18.83;;;2.90;96.80;;;;;;5049777;28;20048;-42
2020/12/08 03:28:31;;;;;;;28.60;17.73;;;2.90;96.80;;;;;;5050263;28;20485;-41
2020/12/08 03:30:56;;;;;;;29.98;18.30;;;2.90;96.80;;;;;;5050908;28;20017;-44
2020/12/08 03:33:22;;;;;;;29.90;18.63;;;2.90;96.80;;;;;;5049225;28;20029;-43
2020/12/08 03:35:48;;;;;;;30.85;18.92;;;2.90;96.80;;;;;;5049738;28;20668;-43
2020/12/08 03:38:13;;;;;;;28.10;17.73;;;2.80;96.80;;;;;;5049535;28;20064;-42
2020/12/08 03:40:40;;;;;;;28.83;17.00;;;2.80;96.80;;;;;;5049545;28;20055;-43
2020/12/08 03:43:05;;;;;;;30.77;17.17;;;2.80;96.80;;;;;;5050612;28;20025;-43
2020/12/08 03:45:31;;;;;;;30.30;17.48;;;2.80;96.80;;;;;;5050209;28;20131;-43
2020/12/08 03:47:56;;;;;;;28.35;16.15;;;2.70;96.80;;;;;;5049501;28;20123;-42
2020/12/08 03:50:22;;;;;;;25.58;16.25;;;2.80;96.80;;;;;;5049096;28;20175;-43
2020/12/08 03:52:47;;;;;;;33.08;18.02;;;2.70;96.80;;;;;;5049814;28;20040;-43
2020/12/08 03:55:13;;;;;;;28.95;17.42;;;2.70;96.80;;;;;;5048656;28;20063;-42
2020/12/08 03:57:38;;;;;;;34.92;17.67;;;2.70;96.80;;;;;;5049031;28;20032;-43
2020/12/08 04:00:07;;;;;;;30.85;18.80;;;2.70;96.80;;;;;;5050489;28;20033;-42
2020/12/08 04:02:32;;;;;;;30.55;19.17;;;2.70;96.80;;;;;;5049477;28;20119;-43
2020/12/08 04:04:58;;;;;;;31.50;18.88;;;2.70;96.90;;;;;;5049363;28;20113;-44
2020/12/08 04:07:23;;;;;;;28.30;17.65;;;2.70;96.90;;;;;;5048706;28;20488;-42
2020/12/08 04:09:49;;;;;;;30.58;18.05;;;2.70;96.90;;;;;;5048855;28;20112;-43
2020/12/08 04:12:14;;;;;;;33.53;20.25;;;2.70;96.80;;;;;;5049051;28;20413;-43
2020/12/08 04:14:40;;;;;;;35.22;20.55;;;2.60;96.90;;;;;;5050296;28;20056;-43
2020/12/08 04:17:05;;;;;;;30.00;19.42;;;2.60;96.80;;;;;;5049127;28;20422;-43
2020/12/08 04:19:31;;;;;;;30.58;19.08;;;2.60;96.80;;;;;;5048534;28;20108;-43
2020/12/08 04:22:00;;;;;;;36.80;21.23;;;2.60;97.10;;;;;;5048889;28;20476;-43
2020/12/08 04:24:26;;;;;;;30.55;19.40;;;2.60;96.80;;;;;;5048070;28;20024;-43
2020/12/08 04:26:51;;;;;;;30.00;18.77;;;2.60;96.80;;;;;;5049290;28;20847;-44
2020/12/08 04:29:17;;;;;;;28.67;18.45;;;2.60;96.80;;;;;;5048825;28;20100;-43
2020/12/08 04:31:42;;;;;;;28.90;18.65;;;2.60;96.80;;;;;;5049310;28;20064;-42
2020/12/08 04:34:08;;;;;;;29.08;18.10;;;2.60;96.70;;;;;;5048826;28;20071;-42
2020/12/08 04:36:34;;;;;;;29.70;18.98;;;2.50;96.70;;;;;;5048102;28;20037;-43
2020/12/08 04:38:59;;;;;;;27.70;18.08;;;2.50;96.70;;;;;;5048542;28;20035;-43
2020/12/08 04:41:26;;;;;;;31.70;18.88;;;2.50;96.70;;;;;;5048340;28;20118;-43
2020/12/08 04:43:52;;;;;;;28.58;17.17;;;2.50;96.70;;;;;;5048177;28;20025;-43
2020/12/08 04:46:20;;;;;;;28.02;16.90;;;2.50;96.70;;;;;;5048150;28;20377;-43
2020/12/08 04:48:50;;;;;;;32.60;20.92;;;2.50;96.70;;;;;;5049244;28;20456;-43
2020/12/08 04:51:16;;;;;;;30.20;19.90;;;2.50;96.70;;;;;;5048149;28;20025;-43
2020/12/08 04:53:42;;;;;;;33.03;21.05;;;2.40;96.80;;;;;;5049097;28;20033;-42
2020/12/08 04:56:08;;;;;;;37.08;23.60;;;2.40;96.80;;;;;;5048282;28;20029;-42
2020/12/08 04:58:33;;;;;;;32.58;20.65;;;2.50;96.80;;;;;;5048738;28;20128;-42
2020/12/08 05:00:59;;;;;;;30.38;19.67;;;2.40;96.80;;;;;;5048647;28;20029;-41
2020/12/08 05:03:26;;;;;;;30.48;20.35;;;2.40;96.80;;;;;;5047683;28;20481;-43
2020/12/08 05:05:52;;;;;;;37.53;23.60;;;2.40;96.90;;;;;;5047643;28;20048;-43
2020/12/08 05:08:18;;;;;;;34.70;22.75;;;2.50;97.10;;;;;;5047232;28;20480;-43
2020/12/08 05:10:44;;;;;;;33.22;21.50;;;2.50;97.10;;;;;;5048346;28;20021;-42
2020/12/08 05:13:27;;;;;;;33.17;21.67;;;2.60;97.20;;;;;;5047901;28;20041;-44
2020/12/08 05:16:07;;;;;;;28.17;19.15;;;2.60;97.10;;;;;;5048611;28;20017;-44
2020/12/08 05:18:33;;;;;;;25.40;17.17;;;2.60;97.00;;;;;;5048074;28;20021;-41
2020/12/08 05:21:12;;;;;;;34.25;20.10;;;2.60;97.00;;;;;;5047877;28;20108;-44
2020/12/08 05:23:42;;;;;;;28.70;19.70;;;2.60;96.90;;;;;;5048041;28;20017;-42
2020/12/08 05:26:09;;;;;;;28.80;20.70;;;2.50;96.80;;;;;;5046422;28;20028;-42
2020/12/08 05:28:36;;;;;;;31.38;21.25;;;2.50;96.80;;;;;;5047569;28;20367;-44
2020/12/08 05:31:01;;;;;;;33.22;21.48;;;2.50;96.80;;;;;;5048063;28;20021;-43
2020/12/08 05:33:27;;;;;;;38.28;24.30;;;2.50;96.80;;;;;;5046769;28;20592;-43
2020/12/08 05:35:57;;;;;;;41.08;26.33;;;2.50;96.80;;;;;;5048132;28;20021;-42
2020/12/08 05:38:47;;;;;;;34.72;23.73;;;2.40;96.80;;;;;;5046990;28;20091;-43
2020/12/08 05:41:13;;;;;;;38.28;25.02;;;2.40;96.90;;;;;;5046786;28;20567;-45
2020/12/08 05:43:41;;;;;;;34.33;21.98;;;2.40;96.90;;;;;;5048253;28;20131;-43
2020/12/08 05:46:08;;;;;;;31.50;21.98;;;2.40;96.90;;;;;;5047945;28;20204;-41
2020/12/08 05:48:34;;;;;;;31.92;22.88;;;2.40;96.90;;;;;;5046958;28;20171;-42
2020/12/08 05:51:01;;;;;;;36.22;24.17;;;2.40;96.90;;;;;;5047291;28;20139;-43
2020/12/08 05:53:27;;;;;;;43.03;26.75;;;2.40;96.90;;;;;;5047016;28;20543;-43
2020/12/08 05:56:02;;;;;;;37.60;24.95;;;2.40;96.90;;;;;;5047042;28;20544;-43
2020/12/08 05:58:28;;;;;;;38.67;25.92;;;2.40;96.90;;;;;;5047116;28;20028;-43
2020/12/08 06:01:00;;;;;;;43.60;28.02;;;2.30;96.90;;;;;;5047835;28;20025;-43
2020/12/08 06:03:26;;;;;;;38.55;25.40;;;2.30;96.90;;;;;;5046831;28;20025;-43
2020/12/08 06:05:52;;;;;;;38.03;24.45;;;2.30;96.90;;;;;;5047203;28;20816;-43
2020/12/08 06:08:20;;;;;;;38.15;26.35;;;2.40;97.00;;;;;;5046207;28;20133;-43
2020/12/08 06:10:49;;;;;;;39.88;25.05;;;2.40;97.10;;;;;;5047382;28;20031;-43
2020/12/08 06:13:32;;;;;;;37.33;26.05;;;2.40;97.10;;;;;;5047326;28;20028;-43
2020/12/08 06:15:59;;;;;;;39.80;25.73;;;2.50;97.20;;;;;;5047448;28;20783;-42
2020/12/08 06:18:36;;;;;;;40.55;26.00;;;2.50;97.20;;;;;;5046419;28;20461;-42
2020/12/08 06:21:22;;;;;;;40.60;26.75;;;2.50;97.10;;;;;;5047804;28;20083;-43
2020/12/08 06:23:53;;;;;;;47.22;29.27;;;2.50;97.20;;;;;;5050752;28;20029;-42
2020/12/08 06:26:37;;;;;;;37.00;24.60;;;2.60;97.20;;;;;;5050786;28;20110;-42
2020/12/08 06:29:09;;;;;;;39.03;25.45;;;2.60;97.20;;;;;;5050993;28;20492;-43
2020/12/08 06:31:48;;;;;;;43.60;27.05;;;2.70;97.20;;;;;;5051870;28;20021;-42
2020/12/08 06:34:21;;;;;;;41.08;25.33;;;2.70;97.20;;;;;;5050927;28;20040;-42
2020/12/08 06:36:46;;;;;;;41.50;26.38;;;2.70;97.20;;;;;;5050282;28;20384;-42
2020/12/08 06:39:13;;;;;;;42.53;27.25;;;2.80;97.20;;;;;;5050113;28;20017;-43
2020/12/08 06:41:40;;;;;;;40.95;28.05;;;2.80;97.20;;;;;;5051247;28;20055;-42
2020/12/08 06:44:12;;;;;;;39.67;24.52;;;2.80;97.10;;;;;;5050889;28;20060;-42
2020/12/08 06:46:38;;;;;;;35.27;23.87;;;2.80;97.10;;;;;;5048747;28;20447;-42
2020/12/08 06:49:05;;;;;;;37.05;24.40;;;2.80;97.10;;;;;;5051669;28;20037;-41
2020/12/08 06:51:32;;;;;;;35.63;23.65;;;2.80;97.10;;;;;;5052245;28;20356;-43
2020/12/08 06:53:57;;;;;;;35.38;24.00;;;2.90;97.10;;;;;;5051021;28;20029;-42
2020/12/08 06:56:27;;;;;;;38.10;25.95;;;2.90;97.10;;;;;;5050669;28;20021;-43
2020/12/08 06:58:53;;;;;;;39.58;25.88;;;2.90;97.10;;;;;;5047553;28;20025;-43
2020/12/08 07:01:18;;;;;;;37.22;26.50;;;3.00;97.10;;;;;;5048230;28;20717;-42
2020/12/08 07:03:44;;;;;;;37.13;25.13;;;3.00;97.10;;;;;;5049797;28;20039;-43
2020/12/08 07:06:10;;;;;;;40.08;26.77;;;3.10;97.10;;;;;;5056084;28;20058;-42
2020/12/08 07:08:37;;;;;;;40.72;27.10;;;3.10;97.00;;;;;;5069775;28;20090;-42
2020/12/08 07:11:04;;;;;;;39.78;27.60;;;3.10;97.00;;;;;;5069453;28;20100;-43
2020/12/08 07:13:32;;;;;;;34.80;25.20;;;3.10;97.00;;;;;;5069448;28;20025;-42
2020/12/08 07:15:58;;;;;;;38.53;27.00;;;3.10;96.90;;;;;;5060401;28;20028;-43
2020/12/08 07:18:24;;;;;;;35.15;24.63;;;3.10;97.00;;;;;;5047050;28;20021;-41
2020/12/08 07:20:53;;;;;;;39.72;26.25;;;3.20;97.00;;;;;;5049401;28;20021;-43
2020/12/08 07:23:18;;;;;;;37.53;24.83;;;3.20;96.90;;;;;;5049183;28;20143;-43
2020/12/08 07:25:44;;;;;;;37.80;25.80;;;3.20;96.90;;;;;;5059025;28;20129;-42
2020/12/08 07:28:09;;;;;;;37.47;26.27;;;3.20;96.90;;;;;;5069609;28;20182;-43
2020/12/08 07:30:35;;;;;;;34.40;24.48;;;3.20;96.90;;;;;;5070036;28;20487;-44
2020/12/08 07:33:14;;;;;;;38.08;24.85;;;3.20;96.80;;;;;;5068830;28;20054;-43
2020/12/08 07:35:44;;;;;;;36.95;25.13;;;3.30;96.80;;;;;;5070703;28;20029;-42
2020/12/08 07:38:10;;;;;;;34.55;24.50;;;3.30;96.80;;;;;;5070101;28;20057;-42
2020/12/08 07:40:37;;;;;;;33.35;23.00;;;3.30;96.80;;;;;;5070015;28;20029;-43
2020/12/08 07:43:04;;;;;;;30.42;21.00;;;3.30;96.80;;;;;;5070696;28;20024;-43
2020/12/08 07:45:40;;;;;;;31.02;21.30;;;3.30;96.80;;;;;;5069604;28;20058;-42
2020/12/08 07:48:05;;;;;;;32.13;21.27;;;3.30;96.80;;;;;;5065625;28;20118;-41
2020/12/08 07:50:32;;;;;;;39.28;24.58;;;3.40;96.80;;;;;;5048933;28;20025;-43
2020/12/08 07:53:06;;;;;;;33.33;21.73;;;3.40;96.70;;;;;;5049250;28;20029;-43
2020/12/08 07:55:42;;;;;;;30.73;21.10;;;3.40;96.80;;;;;;5046016;28;20025;-42
2020/12/08 07:58:08;;;;;;;29.95;21.25;;;3.40;96.70;;;;;;5047067;28;20024;-42
2020/12/08 08:00:35;;;;;;;32.50;21.60;;;3.40;96.70;;;;;;5047886;28;20031;-42
2020/12/08 08:03:00;;;;;;;30.10;21.23;;;3.40;96.70;;;;;;5063854;28;20036;-43
2020/12/08 08:05:26;;;;;;;33.50;23.08;;;3.50;96.70;;;;;;5058045;28;20025;-48
2020/12/08 08:07:51;;;;;;;36.83;24.70;;;3.50;96.70;;;;;;5048633;28;20044;-32
2020/12/08 08:10:17;;;;;;;39.45;27.30;;;3.50;96.70;;;;;;5048174;28;20110;-45
2020/12/08 08:12:42;;;;;;;39.78;27.40;;;3.50;96.70;;;;;;5048750;28;20048;-42
2020/12/08 08:15:09;;;;;;;39.30;25.42;;;3.50;96.60;;;;;;5058974;28;20031;-43
2020/12/08 08:17:35;;;;;;;41.80;28.20;;;3.50;96.60;;;;;;5067345;28;20468;-43
2020/12/08 08:20:00;;;;;;;37.97;26.27;;;3.50;96.60;;;;;;5068783;28;20073;-44
2020/12/08 08:22:26;;;;;;;46.83;27.73;;;3.50;96.60;;;;;;5066385;28;20107;-44
2020/12/08 08:24:52;;;;;;;46.10;28.83;;;3.50;96.50;;;;;;5067358;28;20028;-42
2020/12/08 08:27:18;;;;;;;44.83;28.55;;;3.50;96.50;;;;;;5066964;28;20073;-43
2020/12/08 08:29:43;;;;;;;43.72;28.75;;;3.60;96.50;;;;;;5067151;28;20035;-43
2020/12/08 08:32:09;;;;;;;43.40;27.33;;;3.60;96.50;;;;;;5067267;28;20031;-43
2020/12/08 08:34:34;;;;;;;39.95;27.35;;;3.60;96.50;;;;;;5067103;28;20384;-44
2020/12/08 08:37:00;;;;;;;42.70;28.83;;;3.60;96.40;;;;;;5052355;28;20029;-44
2020/12/08 08:39:25;;;;;;;45.45;28.25;;;3.60;96.40;;;;;;5047708;28;20052;-44
2020/12/08 08:41:53;;;;;;;43.08;27.70;;;3.60;96.40;;;;;;5048946;28;20029;-42
2020/12/08 08:44:19;;;;;;;42.42;28.52;;;3.60;96.30;;;;;;5051397;28;20241;-45
2020/12/08 08:46:45;;;;;;;37.78;26.50;;;3.60;96.30;;;;;;5046143;28;20566;-43
2020/12/08 08:49:17;;;;;;;39.28;27.38;;;3.60;96.30;;;;;;5049909;28;20049;-43
2020/12/08 08:51:44;;;;;;;43.50;28.88;;;3.70;96.30;;;;;;5047643;28;20490;-43
2020/12/08 08:54:11;;;;;;;39.65;26.98;;;3.70;96.30;;;;;;5047012;28;20029;-44
2020/12/08 08:56:37;;;;;;;42.92;27.50;;;3.70;96.20;;;;;;5051317;28;20111;-43
2020/12/08 08:59:03;;;;;;;39.38;26.88;;;3.80;96.30;;;;;;5067358;28;20028;-42
2020/12/08 09:01:29;;;;;;;39.38;25.60;;;3.80;96.20;;;;;;5055149;28;20021;-44
2020/12/08 09:03:54;;;;;;;44.90;29.73;;;3.80;96.20;;;;;;5044358;28;21652;-43
2020/12/08 09:06:20;;;;;;;43.05;27.75;;;3.80;96.20;;;;;;5047444;28;20029;-43
2020/12/08 09:08:45;;;;;;;42.80;28.80;;;3.80;96.20;;;;;;5068300;28;20040;-43
2020/12/08 09:11:11;;;;;;;41.58;28.13;;;3.90;96.20;;;;;;5067619;28;20545;-42
2020/12/08 09:13:37;;;;;;;39.90;26.48;;;3.90;96.10;;;;;;5067637;28;20028;-42
2020/12/08 09:16:03;;;;;;;40.22;26.95;;;3.90;96.10;;;;;;5059699;28;20108;-42
2020/12/08 09:18:29;;;;;;;40.25;27.23;;;3.90;96.10;;;;;;5046473;28;20121;-44
2020/12/08 09:20:55;;;;;;;37.70;25.63;;;4.00;96.10;;;;;;5047202;28;20100;-43
2020/12/08 09:23:22;;;;;;;37.65;25.30;;;4.00;96.00;;;;;;5047747;28;20103;-42
2020/12/08 09:25:52;;;;;;;40.03;26.73;;;4.00;96.00;;;;;;5052460;28;20008;-42
2020/12/08 09:28:19;;;;;;;42.58;29.40;;;4.10;96.00;;;;;;5066973;28;20113;-42
2020/12/08 09:30:45;;;;;;;43.30;28.80;;;4.10;96.00;;;;;;5060597;28;20013;-42
2020/12/08 09:33:10;;;;;;;57.45;38.20;;;4.10;95.90;;;;;;5058845;28;20031;-43
2020/12/08 09:35:36;;;;;;;43.30;28.83;;;4.20;95.80;;;;;;5068244;28;20108;-43
2020/12/08 09:38:02;;;;;;;40.53;27.83;;;4.10;95.80;;;;;;5067956;28;20028;-43
2020/12/08 09:40:27;;;;;;;38.67;28.05;;;4.20;95.80;;;;;;5066937;28;20780;-43
2020/12/08 09:42:53;;;;;;;40.08;26.63;;;4.20;95.80;;;;;;5067669;28;20460;-43
2020/12/08 09:45:18;;;;;;;40.72;28.20;;;4.20;95.70;;;;;;5067009;28;20048;-42
2020/12/08 09:47:44;;;;;;;39.42;27.38;;;4.30;96.00;;;;;;5067528;28;20057;-44
2020/12/08 09:50:10;;;;;;;33.72;23.90;;;4.30;95.70;;;;;;5067140;28;20068;-43
2020/12/08 09:52:37;;;;;;;39.17;26.30;;;4.30;95.70;;;;;;5060253;28;20048;-43
2020/12/08 09:55:03;;;;;;;38.40;25.80;;;4.40;95.70;;;;;;5046681;28;20091;-42
2020/12/08 09:57:29;;;;;;;39.47;26.95;;;4.40;95.70;;;;;;5045237;28;20021;-44
2020/12/08 09:59:55;;;;;;;39.25;27.05;;;4.40;95.60;;;;;;5046398;28;20044;-44
2020/12/08 10:02:23;;;;;;;33.65;24.70;;;4.50;95.60;;;;;;5046426;28;20017;-42
2020/12/08 10:04:48;;;;;;;35.80;24.70;;;4.50;95.50;;;;;;5046758;28;20372;-43
2020/12/08 10:07:15;;;;;;;36.10;25.50;;;4.50;95.50;;;;;;5045918;28;20044;-44
2020/12/08 10:09:46;;;;;;;37.65;26.52;;;4.50;95.50;;;;;;5046629;28;20031;-43
2020/12/08 10:12:12;;;;;;;34.00;25.33;;;4.60;95.50;;;;;;5043274;28;20104;-43
2020/12/08 10:14:38;;;;;;;37.10;24.58;;;4.60;95.40;;;;;;5046367;28;20071;-43
2020/12/08 10:17:04;;;;;;;35.45;23.75;;;4.60;95.40;;;;;;5046911;28;20036;-43
2020/12/08 10:19:30;;;;;;;32.00;23.05;;;4.70;95.50;;;;;;5045917;28;20052;-44
2020/12/08 10:21:56;;;;;;;34.78;23.77;;;4.70;95.50;;;;;;5046309;28;20017;-43
2020/12/08 10:24:22;;;;;;;34.13;24.08;;;4.80;95.40;;;;;;5045975;28;20104;-43
2020/12/08 10:26:48;;;;;;;37.30;25.67;;;4.80;95.30;;;;;;5046395;28;20048;-43
2020/12/08 10:29:14;;;;;;;32.22;23.58;;;4.80;95.20;;;;;;5046490;28;20036;-43
2020/12/08 10:31:39;;;;;;;33.35;22.80;;;4.90;95.20;;;;;;5046338;28;20025;-43
2020/12/08 10:34:05;;;;;;;32.75;24.05;;;4.90;95.20;;;;;;5046466;28;20380;-43
2020/12/08 10:36:30;;;;;;;32.22;22.70;;;4.90;95.20;;;;;;5045478;28;20108;-42
2020/12/08 10:38:56;;;;;;;38.58;26.10;;;5.00;95.20;;;;;;5046258;28;20059;-43
2020/12/08 10:41:24;;;;;;;36.80;24.35;;;5.00;95.10;;;;;;5045833;28;20021;-42
2020/12/08 10:43:50;;;;;;;34.85;24.75;;;5.00;95.10;;;;;;5045656;28;20032;-43
2020/12/08 10:46:15;;;;;;;38.78;27.23;;;5.10;95.10;;;;;;5045752;28;20021;-43
2020/12/08 10:48:41;;;;;;;36.65;26.10;;;5.10;95.10;;;;;;5046114;28;20076;-43
2020/12/08 10:51:07;;;;;;;34.33;25.23;;;5.20;95.10;;;;;;5045215;28;20051;-44
2020/12/08 10:53:32;;;;;;;33.38;24.85;;;5.20;95.00;;;;;;5046239;28;20025;-43
2020/12/08 10:55:58;;;;;;;38.75;24.85;;;5.20;95.00;;;;;;5045970;28;20072;-43
2020/12/08 10:58:23;;;;;;;38.28;26.52;;;5.30;95.00;;;;;;5046038;28;20033;-43
2020/12/08 11:00:49;;;;;;;40.53;27.35;;;5.40;94.90;;;;;;5046520;28;20103;-42
2020/12/08 11:03:14;;;;;;;37.75;26.17;;;5.50;94.80;;;;;;5046603;28;20361;-43
2020/12/08 11:05:40;;;;;;;34.75;24.05;;;5.50;94.70;;;;;;5044135;28;20104;-42
2020/12/08 11:08:06;;;;;;;35.80;25.85;;;5.50;94.60;;;;;;5047848;28;20415;-44
2020/12/08 11:10:32;;;;;;;35.78;26.58;;;5.60;94.60;;;;;;5049629;28;20013;-44
2020/12/08 11:12:57;;;;;;;35.92;25.20;;;5.60;94.40;;;;;;5046865;28;20025;-43
2020/12/08 11:15:23;;;;;;;34.17;25.27;;;5.50;94.30;;;;;;5048877;28;20735;-42
2020/12/08 11:17:48;;;;;;;37.78;26.60;;;5.50;94.30;;;;;;5049023;28;20020;-43
2020/12/08 11:20:14;;;;;;;34.85;25.38;;;5.50;94.20;;;;;;5048876;28;20021;-43
2020/12/08 11:22:40;;;;;;;33.15;23.80;;;5.50;94.10;;;;;;5050017;28;20040;-43
2020/12/08 11:25:06;;;;;;;35.22;24.95;;;5.50;94.20;;;;;;5048415;28;20025;-44
2020/12/08 11:27:32;;;;;;;34.17;25.80;;;5.50;94.20;;;;;;5048931;28;20037;-43
2020/12/08 11:29:57;;;;;;;33.53;24.48;;;5.50;94.20;;;;;;5049626;28;20491;-43
2020/12/08 11:32:23;;;;;;;29.52;22.55;;;5.50;94.20;;;;;;5047136;28;20024;-44
2020/12/08 11:34:48;;;;;;;32.88;22.83;;;5.50;94.30;;;;;;5049724;28;20021;-43
2020/12/08 11:37:14;;;;;;;34.50;24.73;;;5.50;94.30;;;;;;5047881;28;20196;-43
2020/12/08 11:39:40;;;;;;;33.33;23.52;;;5.40;94.30;;;;;;5044422;28;20063;-43
2020/12/08 11:42:08;;;;;;;30.92;22.67;;;5.40;94.30;;;;;;5046584;28;20056;-43
2020/12/08 11:44:34;;;;;;;28.35;21.52;;;5.40;94.30;;;;;;5049700;28;20032;-42
2020/12/08 11:47:00;;;;;;;31.13;22.27;;;5.40;94.40;;;;;;5048725;28;20075;-43
2020/12/08 11:49:26;;;;;;;29.98;22.85;;;5.40;94.40;;;;;;5048200;28;20439;-43
2020/12/08 11:51:51;;;;;;;29.45;20.55;;;5.40;94.40;;;;;;5049537;28;20115;-44
2020/12/08 11:54:17;;;;;;;24.17;18.73;;;5.40;94.40;;;;;;5048791;28;20021;-43
2020/12/08 11:56:42;;;;;;;23.38;17.83;;;5.40;94.50;;;;;;5048137;28;20040;-42
2020/12/08 11:59:08;;;;;;;23.55;17.35;;;5.40;94.60;;;;;;5048436;28;20021;-43
2020/12/08 12:01:34;;;;;;;24.33;17.63;;;5.40;94.60;;;;;;5047287;28;20029;-43
2020/12/08 12:03:59;;;;;;;24.58;18.17;;;5.40;94.70;;;;;;5056341;28;20034;-42
2020/12/08 12:06:25;;;;;;;23.40;18.42;;;5.40;94.70;;;;;;5062195;28;20028;-42
2020/12/08 12:08:51;;;;;;;21.58;17.13;;;5.40;94.70;;;;;;5055828;28;20522;-43
2020/12/08 12:11:16;;;;;;;24.52;18.10;;;5.40;94.70;;;;;;5048705;28;20009;-44
2020/12/08 12:13:42;;;;;;;26.00;17.85;;;5.40;94.70;;;;;;5048403;28;20031;-44
2020/12/08 12:16:07;;;;;;;22.30;17.35;;;5.40;94.80;;;;;;5049054;28;20107;-44
2020/12/08 12:18:33;;;;;;;23.10;17.13;;;5.40;94.80;;;;;;5049400;28;20152;-45
2020/12/08 12:20:59;;;;;;;22.50;17.08;;;5.40;94.80;;;;;;5048986;28;20468;-44
2020/12/08 12:23:25;;;;;;;20.13;15.70;;;5.40;94.90;;;;;;5048875;28;20107;-44
2020/12/08 12:25:50;;;;;;;26.83;20.17;;;5.40;94.90;;;;;;5049430;28;20024;-43
2020/12/08 12:28:16;;;;;;;31.48;22.13;;;5.50;94.90;;;;;;5048140;28;20446;-44
2020/12/08 12:30:41;;;;;;;31.40;22.60;;;5.50;94.80;;;;;;5049278;28;20025;-45
2020/12/08 12:33:07;;;;;;;27.92;21.60;;;5.50;94.70;;;;;;5049269;28;20056;-43